createdAt,value
2024-01-19T00:02:27.673Z,88.03
2024-01-19T00:04:56.351Z,88.30
2024-01-19T00:07:25.224Z,89.59
2024-01-19T00:09:54.226Z,87.84
2024-01-19T00:12:23.014Z,87.61
2024-01-19T00:14:51.754Z,87.04
2024-01-19T00:17:20.918Z,86.97
2024-01-19T00:19:49.787Z,87.12
2024-01-19T00:22:18.570Z,87.27
2024-01-19T00:24:47.157Z,87.11
2024-01-19T00:27:15.760Z,87.45
2024-01-19T00:29:44.678Z,87.48
2024-01-19T00:32:13.368Z,87.42
2024-01-19T00:34:41.955Z,87.53
2024-01-19T00:37:10.584Z,87.92
2024-01-19T00:39:39.481Z,88.52
2024-01-19T00:42:08.881Z,88.30
2024-01-19T00:44:37.681Z,88.69
2024-01-19T00:47:06.451Z,88.25
2024-01-19T00:49:36.189Z,88.33
2024-01-19T00:52:05.082Z,88.38
2024-01-19T00:54:34.256Z,88.53
2024-01-19T00:57:03.863Z,88.54
2024-01-19T00:59:32.675Z,87.59
2024-01-19T01:02:01.606Z,87.67
2024-01-19T01:04:30.589Z,87.86
2024-01-19T01:06:59.208Z,87.75
2024-01-19T01:09:29.428Z,87.59
2024-01-19T01:11:58.796Z,87.84
2024-01-19T01:14:27.702Z,88.05
2024-01-19T01:16:56.519Z,88.61
2024-01-19T01:19:25.560Z,88.45
2024-01-19T01:21:54.190Z,89.12
2024-01-19T01:24:23.689Z,88.82
2024-01-19T01:26:52.430Z,89.07
2024-01-19T01:29:21.736Z,89.33
2024-01-19T01:31:52.207Z,89.71
2024-01-19T01:34:20.850Z,90.40
2024-01-19T01:36:49.577Z,89.98
2024-01-19T01:39:18.763Z,89.63
2024-01-19T01:41:48.405Z,90.06
2024-01-19T01:44:17.151Z,89.53
2024-01-19T01:46:49.170Z,89.28
2024-01-19T01:49:19.017Z,89.31
2024-01-19T01:51:48.165Z,89.33
2024-01-19T01:54:17.366Z,88.90
2024-01-19T01:56:47.025Z,89.00
2024-01-19T01:59:17.001Z,89.15
2024-01-19T02:01:46.474Z,89.05
2024-01-19T02:04:15.879Z,89.45
2024-01-19T02:06:44.801Z,89.26
2024-01-19T02:09:14.942Z,89.69
2024-01-19T02:11:43.897Z,90.15
2024-01-19T02:14:12.308Z,89.60
2024-01-19T02:16:41.251Z,88.81
2024-01-19T02:19:09.929Z,88.59
2024-01-19T02:21:38.732Z,89.16
2024-01-19T02:24:13.690Z,89.00
2024-01-19T02:26:42.338Z,89.08
2024-01-19T02:29:11.545Z,89.10
2024-01-19T02:31:40.880Z,89.30
2024-01-19T02:34:09.422Z,89.32
2024-01-19T02:36:38.106Z,88.98
2024-01-19T02:39:06.796Z,88.56
2024-01-19T02:41:35.614Z,87.73
2024-01-19T02:44:04.780Z,88.02
2024-01-19T02:46:33.981Z,87.72
2024-01-19T02:49:02.635Z,88.01
2024-01-19T02:51:31.550Z,88.20
2024-01-19T02:54:00.146Z,87.98
2024-01-19T02:56:29.347Z,88.07
2024-01-19T02:58:58.316Z,88.61
2024-01-19T03:01:26.909Z,88.56
2024-01-19T03:03:55.691Z,88.77
2024-01-19T03:06:24.974Z,89.03
2024-01-19T03:08:54.830Z,88.51
2024-01-19T03:11:23.837Z,88.81
2024-01-19T03:13:55.243Z,88.92
2024-01-19T03:16:23.930Z,88.95
2024-01-19T03:18:56.507Z,88.77
2024-01-19T03:21:25.092Z,89.97
2024-01-19T03:23:54.021Z,89.63
2024-01-19T03:26:23.120Z,89.34
2024-01-19T03:28:51.967Z,88.78
2024-01-19T03:31:20.653Z,89.27
2024-01-19T03:33:50.377Z,89.43
2024-01-19T03:36:19.246Z,90.16
2024-01-19T03:38:47.972Z,90.26
2024-01-19T03:41:17.369Z,89.94
2024-01-19T03:43:46.220Z,90.00
2024-01-19T03:46:15.315Z,89.55
2024-01-19T03:48:44.492Z,89.64
2024-01-19T03:51:13.104Z,89.43
2024-01-19T03:53:45.318Z,88.64
2024-01-19T03:56:14.257Z,88.29
2024-01-19T03:58:43.514Z,88.16
2024-01-19T04:01:12.458Z,88.00
2024-01-19T04:03:41.648Z,87.91
2024-01-19T04:06:10.390Z,87.63
2024-01-19T04:08:39.225Z,87.31
2024-01-19T04:11:08.421Z,87.65
2024-01-19T04:13:37.202Z,87.68
2024-01-19T04:16:06.505Z,87.71
2024-01-19T04:18:35.412Z,87.54
2024-01-19T04:21:04.507Z,87.41
2024-01-19T04:23:33.290Z,87.34
2024-01-19T04:26:02.059Z,87.93
2024-01-19T04:28:30.956Z,88.13
2024-01-19T04:30:59.746Z,88.13
2024-01-19T04:33:28.760Z,87.69
2024-01-19T04:35:57.554Z,87.47
2024-01-19T04:38:26.427Z,87.28
2024-01-19T04:40:55.721Z,87.63
2024-01-19T04:43:24.293Z,88.76
2024-01-19T04:45:54.432Z,89.56
2024-01-19T04:48:23.328Z,88.84
2024-01-19T04:50:53.043Z,88.57
2024-01-19T04:53:22.035Z,88.63
2024-01-19T04:55:50.628Z,88.66
2024-01-19T04:58:19.178Z,89.21
2024-01-19T05:00:49.243Z,89.07
2024-01-19T05:03:18.613Z,89.00
2024-01-19T05:05:47.818Z,89.06
2024-01-19T05:08:17.607Z,88.85
2024-01-19T05:10:46.196Z,88.64
2024-01-19T05:13:14.675Z,88.14
2024-01-19T05:15:45.798Z,87.62
2024-01-19T05:18:14.643Z,87.54
2024-01-19T05:20:43.814Z,87.96
2024-01-19T05:23:12.693Z,88.36
2024-01-19T05:25:41.631Z,88.62
2024-01-19T05:28:10.473Z,88.96
2024-01-19T05:30:39.565Z,88.86
2024-01-19T05:33:08.548Z,88.76
2024-01-19T05:35:37.402Z,88.20
2024-01-19T05:38:06.445Z,88.08
2024-01-19T05:40:35.907Z,87.42
2024-01-19T05:43:05.968Z,87.60
2024-01-19T05:45:35.870Z,87.85
2024-01-19T05:48:05.435Z,88.25
2024-01-19T05:50:35.071Z,88.55
2024-01-19T05:53:03.900Z,87.97
2024-01-19T05:55:32.769Z,87.36
2024-01-19T05:58:01.361Z,87.21
2024-01-19T06:00:30.971Z,87.73
2024-01-19T06:03:00.106Z,88.07
2024-01-19T06:05:29.235Z,88.81
2024-01-19T06:07:57.938Z,89.35
2024-01-19T06:10:26.727Z,89.58
2024-01-19T06:12:55.924Z,89.62
2024-01-19T06:15:24.913Z,89.67
2024-01-19T06:17:53.693Z,88.94
2024-01-19T06:20:23.895Z,88.33
2024-01-19T06:22:52.744Z,88.09
2024-01-19T06:25:22.109Z,87.67
2024-01-19T06:27:50.893Z,87.46
2024-01-19T06:30:20.401Z,87.73
2024-01-19T06:32:49.272Z,87.72
2024-01-19T06:35:18.440Z,87.64
2024-01-19T06:37:47.279Z,87.67
2024-01-19T06:40:16.433Z,87.74
2024-01-19T06:42:48.131Z,88.04
2024-01-19T06:45:17.933Z,88.56
2024-01-19T06:47:47.625Z,88.31
2024-01-19T06:50:18.177Z,88.02
2024-01-19T06:52:46.665Z,87.93
2024-01-19T06:55:15.555Z,87.65
2024-01-19T06:57:44.233Z,88.14
2024-01-19T07:00:13.589Z,88.66
2024-01-19T07:02:43.466Z,87.74
2024-01-19T07:05:13.680Z,87.58
2024-01-19T07:07:42.255Z,87.61
2024-01-19T07:10:11.348Z,87.14
2024-01-19T07:12:40.239Z,86.93
2024-01-19T07:15:09.408Z,85.37
2024-01-19T07:17:38.185Z,83.09
2024-01-19T07:20:08.625Z,82.50
2024-01-19T07:22:37.138Z,83.14
2024-01-19T07:25:07.065Z,83.77
2024-01-19T07:27:36.060Z,82.90
2024-01-19T07:30:06.521Z,83.06
2024-01-19T07:32:47.354Z,82.30
2024-01-19T07:35:23.897Z,81.57
2024-01-19T07:37:52.971Z,82.13
2024-01-19T07:40:21.801Z,81.53
2024-01-19T07:42:50.581Z,82.56
2024-01-19T07:45:19.368Z,82.36
2024-01-19T07:47:48.421Z,82.01
2024-01-19T07:50:17.243Z,81.71
2024-01-19T07:52:45.632Z,81.36
2024-01-19T07:55:15.049Z,80.88
2024-01-19T07:57:43.710Z,80.90
2024-01-19T08:00:13.673Z,81.09
2024-01-19T08:02:43.060Z,81.24
2024-01-19T08:05:11.833Z,81.33
2024-01-19T08:07:42.039Z,81.12
2024-01-19T08:10:11.031Z,81.14
2024-01-19T08:12:41.375Z,80.81
2024-01-19T08:15:10.907Z,81.21
2024-01-19T08:17:39.659Z,81.07
2024-01-19T08:20:12.530Z,81.11
2024-01-19T08:22:41.319Z,81.41
2024-01-19T08:25:11.208Z,79.65
2024-01-19T08:27:43.713Z,80.36
2024-01-19T08:30:13.271Z,80.47
2024-01-19T08:32:41.958Z,80.10
2024-01-19T08:35:11.208Z,80.60
2024-01-19T08:37:41.032Z,80.29
2024-01-19T08:40:11.888Z,79.90
2024-01-19T08:42:41.180Z,79.60
2024-01-19T08:45:10.111Z,79.42
2024-01-19T08:47:39.435Z,79.67
2024-01-19T08:50:08.946Z,80.06
2024-01-19T08:52:37.630Z,79.52
2024-01-19T08:55:07.130Z,79.28
2024-01-19T08:57:36.603Z,78.78
2024-01-19T09:00:06.585Z,78.53
2024-01-19T09:02:35.486Z,78.31
2024-01-19T09:05:04.942Z,78.97
2024-01-19T09:07:33.843Z,78.49
2024-01-19T09:10:02.514Z,78.27
2024-01-19T09:12:31.403Z,78.34
2024-01-19T09:14:59.976Z,78.09
2024-01-19T09:17:29.134Z,78.34
2024-01-19T09:19:58.718Z,78.35
2024-01-19T09:22:28.541Z,78.42
2024-01-19T09:24:57.185Z,78.38
2024-01-19T09:27:26.388Z,78.40
2024-01-19T09:29:54.889Z,78.06
2024-01-19T09:32:23.713Z,78.19
2024-01-19T09:34:52.675Z,78.63
2024-01-19T09:37:21.126Z,78.31
2024-01-19T09:39:49.503Z,78.39
2024-01-19T09:42:30.259Z,78.54
2024-01-19T09:45:06.602Z,78.53
2024-01-19T09:48:00.337Z,78.23
2024-01-19T09:50:38.502Z,78.45
2024-01-19T09:53:23.960Z,78.66
2024-01-19T09:55:52.693Z,78.42
2024-01-19T09:58:25.270Z,78.88
2024-01-19T10:00:54.083Z,77.98
2024-01-19T10:03:23.935Z,77.70
2024-01-19T10:05:54.446Z,77.93
2024-01-19T10:08:23.489Z,78.61
2024-01-19T10:10:52.697Z,78.60
2024-01-19T10:13:21.501Z,78.56
2024-01-19T10:15:50.872Z,78.34
2024-01-19T10:18:20.645Z,77.92
2024-01-19T10:20:50.562Z,78.07
2024-01-19T10:23:20.983Z,78.13
2024-01-19T10:25:50.770Z,78.07
2024-01-19T10:28:30.308Z,77.91
2024-01-19T10:31:24.576Z,77.92
2024-01-19T10:33:55.325Z,77.93
2024-01-19T10:36:24.867Z,77.76
2024-01-19T10:38:53.932Z,77.80
2024-01-19T10:41:27.226Z,77.94
2024-01-19T10:44:11.484Z,77.90
2024-01-19T10:46:40.428Z,77.64
2024-01-19T10:49:10.362Z,77.66
2024-01-19T10:51:40.762Z,77.72
2024-01-19T10:54:16.932Z,77.87
2024-01-19T10:56:46.591Z,77.17
2024-01-19T10:59:16.352Z,76.81
2024-01-19T11:01:45.205Z,76.80
2024-01-19T11:04:14.315Z,76.67
2024-01-19T11:06:43.299Z,76.74
2024-01-19T11:09:12.326Z,76.74
2024-01-19T11:11:52.179Z,76.60
2024-01-19T11:14:24.627Z,76.84
2024-01-19T11:16:55.880Z,76.56
2024-01-19T11:19:25.842Z,76.05
2024-01-19T11:21:54.595Z,75.52
2024-01-19T11:24:23.178Z,75.93
2024-01-19T11:27:06.305Z,75.28
2024-01-19T11:29:42.123Z,75.61
2024-01-19T11:32:11.872Z,76.00
2024-01-19T11:34:43.362Z,75.94
2024-01-19T11:37:40.360Z,76.36
2024-01-19T11:40:09.251Z,75.84
2024-01-19T11:42:38.647Z,75.88
2024-01-19T11:45:07.739Z,75.89
2024-01-19T11:47:36.639Z,75.99
2024-01-19T11:50:08.617Z,76.28
2024-01-19T11:52:42.091Z,76.59
2024-01-19T11:55:31.905Z,76.73
2024-01-19T11:58:27.537Z,76.95
2024-01-19T12:00:57.853Z,76.98
2024-01-19T12:03:26.917Z,77.23
2024-01-19T12:06:01.479Z,77.76
2024-01-19T12:08:30.496Z,77.37
2024-01-19T12:11:10.423Z,77.33
2024-01-19T12:13:48.931Z,77.19
2024-01-19T12:16:22.815Z,77.16
2024-01-19T12:18:58.196Z,77.39
2024-01-19T12:21:29.404Z,77.54
2024-01-19T12:24:01.691Z,77.43
2024-01-19T12:26:31.357Z,77.58
2024-01-19T12:29:02.446Z,77.52
2024-01-19T12:31:34.905Z,77.41
2024-01-19T12:34:17.173Z,77.45
2024-01-19T12:36:46.399Z,77.80
2024-01-19T12:39:16.300Z,78.07
2024-01-19T12:41:47.059Z,78.04
2024-01-19T12:44:15.821Z,77.79
2024-01-19T12:46:49.269Z,77.99
2024-01-19T12:49:18.251Z,78.02
2024-01-19T12:51:47.501Z,77.90
2024-01-19T12:54:17.010Z,78.25
2024-01-19T12:56:53.308Z,78.27
2024-01-19T12:59:24.763Z,78.34
2024-01-19T13:01:55.447Z,78.26
2024-01-19T13:04:24.709Z,78.37
2024-01-19T13:06:53.216Z,78.26
2024-01-19T13:09:23.460Z,78.32
2024-01-19T13:11:54.397Z,78.57
2024-01-19T13:14:26.313Z,78.65
2024-01-19T13:16:58.813Z,78.60
2024-01-19T13:19:28.284Z,78.74
2024-01-19T13:22:05.648Z,78.67
2024-01-19T13:24:34.333Z,78.95
2024-01-19T13:27:04.118Z,79.15
2024-01-19T13:29:34.107Z,79.11
2024-01-19T13:32:02.997Z,79.06
2024-01-19T13:34:31.809Z,78.88
2024-01-19T13:37:00.911Z,78.96
2024-01-19T13:39:29.594Z,79.11
2024-01-19T13:41:59.230Z,79.70
2024-01-19T13:44:28.653Z,79.63
2024-01-19T13:46:57.643Z,79.82
2024-01-19T13:49:27.040Z,79.47
2024-01-19T13:51:57.016Z,79.57
2024-01-19T13:54:25.393Z,79.47
2024-01-19T13:56:54.398Z,80.09
2024-01-19T13:59:23.278Z,80.34
2024-01-19T14:01:56.609Z,80.58
2024-01-19T14:04:27.872Z,80.69
2024-01-19T14:06:56.399Z,81.10
2024-01-19T14:09:25.492Z,81.23
2024-01-19T14:11:54.178Z,81.74
2024-01-19T14:14:23.085Z,81.32
2024-01-19T14:16:51.781Z,82.34
2024-01-19T14:19:22.150Z,81.94
2024-01-19T14:21:50.777Z,81.79
2024-01-19T14:24:25.388Z,81.87
2024-01-19T14:26:53.991Z,81.90
2024-01-19T14:29:30.355Z,82.73
2024-01-19T14:32:01.957Z,82.93
2024-01-19T14:34:39.218Z,83.40
2024-01-19T14:37:14.938Z,83.47
2024-01-19T14:39:44.645Z,83.69
2024-01-19T14:42:13.532Z,83.51
2024-01-19T14:44:42.649Z,83.06
2024-01-19T14:47:11.329Z,83.19
2024-01-19T14:49:41.754Z,83.31
2024-01-19T14:52:12.046Z,83.51
2024-01-19T14:54:40.901Z,84.58
2024-01-19T14:57:09.744Z,84.96
2024-01-19T14:59:39.951Z,84.30
2024-01-19T15:02:09.531Z,84.40
2024-01-19T15:04:38.158Z,84.35
2024-01-19T15:07:07.279Z,83.88
2024-01-19T15:09:35.832Z,83.90
2024-01-19T15:12:05.125Z,84.78
2024-01-19T15:14:33.818Z,84.93
2024-01-19T15:17:04.157Z,84.70
2024-01-19T15:19:33.771Z,84.44
2024-01-19T15:22:02.836Z,84.16
2024-01-19T15:24:34.399Z,84.50
2024-01-19T15:27:03.074Z,84.19
2024-01-19T15:29:32.673Z,84.06
2024-01-19T15:32:01.296Z,84.15
2024-01-19T15:34:30.076Z,84.70
2024-01-19T15:36:58.836Z,84.69
2024-01-19T15:39:27.627Z,84.72
2024-01-19T15:42:03.641Z,84.30
2024-01-19T15:44:32.580Z,84.65
2024-01-19T15:47:01.136Z,84.32
2024-01-19T15:49:30.029Z,84.61
2024-01-19T15:52:00.243Z,84.87
2024-01-19T15:54:30.486Z,84.91
2024-01-19T15:56:59.901Z,84.57
2024-01-19T15:59:28.487Z,84.92
2024-01-19T16:01:57.279Z,84.61
2024-01-19T16:04:28.748Z,84.98
2024-01-19T16:06:57.604Z,84.63
2024-01-19T16:09:28.242Z,85.05
2024-01-19T16:11:56.825Z,84.14
2024-01-19T16:14:26.438Z,84.37
2024-01-19T16:16:55.044Z,84.58
2024-01-19T16:19:24.831Z,84.90
2024-01-19T16:21:56.795Z,85.64
2024-01-19T16:24:25.483Z,85.40
2024-01-19T16:27:01.421Z,85.13
2024-01-19T16:29:31.626Z,85.40
2024-01-19T16:32:00.493Z,85.58
2024-01-19T16:34:29.234Z,85.89
2024-01-19T16:37:00.494Z,85.03
2024-01-19T16:39:30.389Z,85.70
2024-01-19T16:41:58.970Z,85.56
2024-01-19T16:44:27.762Z,86.47
2024-01-19T16:46:56.428Z,86.14
2024-01-19T16:49:26.893Z,85.71
2024-01-19T16:51:55.655Z,86.37
2024-01-19T16:54:25.712Z,85.67
2024-01-19T16:56:55.067Z,86.24
2024-01-19T16:59:23.656Z,86.16
2024-01-19T17:01:52.347Z,87.13
2024-01-19T17:04:20.953Z,87.90
2024-01-19T17:06:49.958Z,88.08
2024-01-19T17:09:18.705Z,88.24
2024-01-19T17:11:49.744Z,87.56
2024-01-19T17:14:18.591Z,88.27
2024-01-19T17:16:49.269Z,88.92
2024-01-19T17:19:20.416Z,87.62
2024-01-19T17:21:49.015Z,88.80
2024-01-19T17:24:18.087Z,87.71
2024-01-19T17:26:46.768Z,87.69
2024-01-19T17:29:15.709Z,88.28
2024-01-19T17:31:44.981Z,87.92
2024-01-19T17:34:14.312Z,88.22
2024-01-19T17:36:44.589Z,87.75
2024-01-19T17:39:13.496Z,87.96
2024-01-19T17:41:44.427Z,87.60
2024-01-19T17:44:13.750Z,87.83
2024-01-19T17:46:45.444Z,88.17
2024-01-19T17:49:14.896Z,87.68
2024-01-19T17:51:45.710Z,87.26
2024-01-19T17:54:15.624Z,87.51
2024-01-19T17:56:44.312Z,87.15
2024-01-19T17:59:13.117Z,87.21
2024-01-19T18:01:42.116Z,87.18
2024-01-19T18:04:13.029Z,86.89
2024-01-19T18:06:46.276Z,86.87
2024-01-19T18:09:16.492Z,86.70
2024-01-19T18:11:48.415Z,86.60
2024-01-19T18:14:25.854Z,86.38
2024-01-19T18:16:54.644Z,86.24
2024-01-19T18:19:24.338Z,86.10
2024-01-19T18:21:54.916Z,86.24
2024-01-19T18:24:25.265Z,86.34
2024-01-19T18:26:56.852Z,86.53
2024-01-19T18:29:27.368Z,86.24
2024-01-19T18:31:56.036Z,86.10
2024-01-19T18:34:25.342Z,86.23
2024-01-19T18:36:55.141Z,86.70
2024-01-19T18:39:24.836Z,86.46
2024-01-19T18:41:53.514Z,85.96
2024-01-19T18:44:23.246Z,86.35
2024-01-19T18:46:53.560Z,87.02
2024-01-19T18:49:22.834Z,86.89
2024-01-19T18:51:53.200Z,86.77
2024-01-19T18:54:25.348Z,86.47
2024-01-19T18:56:55.470Z,86.14
2024-01-19T18:59:27.843Z,86.20
2024-01-19T19:01:59.180Z,86.21
2024-01-19T19:04:29.559Z,86.21
2024-01-19T19:06:59.828Z,85.89
2024-01-19T19:09:29.449Z,85.64
2024-01-19T19:12:00.392Z,85.77
2024-01-19T19:14:29.740Z,85.53
2024-01-19T19:16:58.823Z,85.36
2024-01-19T19:19:27.719Z,85.49
2024-01-19T19:21:59.117Z,85.61
2024-01-19T19:24:29.004Z,85.56
2024-01-19T19:27:00.645Z,85.63
2024-01-19T19:29:29.474Z,85.59
2024-01-19T19:31:59.643Z,85.42
2024-01-19T19:34:28.370Z,85.46
2024-01-19T19:36:58.790Z,85.53
2024-01-19T19:39:30.546Z,85.83
2024-01-19T19:41:59.346Z,85.90
2024-01-19T19:44:28.542Z,85.96
2024-01-19T19:46:57.857Z,86.18
2024-01-19T19:49:26.425Z,85.85
2024-01-19T19:51:56.851Z,85.88
2024-01-19T19:54:25.435Z,86.00
2024-01-19T19:56:54.120Z,85.59
2024-01-19T19:59:23.177Z,85.79
2024-01-19T20:01:51.817Z,85.58
2024-01-19T20:04:22.523Z,85.27
2024-01-19T20:06:50.904Z,85.30
2024-01-19T20:09:23.863Z,85.28
2024-01-19T20:11:52.479Z,84.86
2024-01-19T20:14:24.232Z,84.59
2024-01-19T20:16:53.286Z,84.84
2024-01-19T20:19:22.013Z,84.92
2024-01-19T20:21:51.841Z,85.00
2024-01-19T20:24:20.715Z,84.79
2024-01-19T20:26:49.501Z,84.85
2024-01-19T20:29:19.117Z,84.61
2024-01-19T20:31:48.755Z,84.63
2024-01-19T20:34:19.066Z,84.82
2024-01-19T20:36:49.420Z,84.64
2024-01-19T20:39:18.749Z,84.79
2024-01-19T20:41:47.669Z,84.66
2024-01-19T20:44:16.961Z,84.74
2024-01-19T20:46:46.293Z,84.94
2024-01-19T20:49:15.192Z,84.96
2024-01-19T20:51:44.044Z,84.74
2024-01-19T20:54:13.591Z,85.03
2024-01-19T20:56:46.309Z,84.86
2024-01-19T20:59:15.986Z,84.98
2024-01-19T21:01:44.856Z,84.99
2024-01-19T21:04:14.669Z,84.60
2024-01-19T21:06:43.465Z,84.84
2024-01-19T21:09:12.415Z,84.54
2024-01-19T21:11:41.200Z,84.80
2024-01-19T21:14:10.891Z,84.75
2024-01-19T21:16:39.942Z,84.64
2024-01-19T21:19:09.005Z,84.46
2024-01-19T21:21:39.026Z,84.18
2024-01-19T21:24:08.629Z,83.99
2024-01-19T21:26:37.408Z,83.88
2024-01-19T21:29:06.012Z,83.88
2024-01-19T21:31:37.493Z,83.69
2024-01-19T21:34:06.238Z,83.67
2024-01-19T21:36:36.350Z,83.53
2024-01-19T21:39:08.841Z,83.39
2024-01-19T21:41:38.850Z,83.41
2024-01-19T21:44:08.229Z,83.15
2024-01-19T21:46:36.787Z,83.29
2024-01-19T21:49:05.787Z,83.04
2024-01-19T21:51:34.817Z,83.20
2024-01-19T21:54:05.453Z,83.14
2024-01-19T21:56:34.331Z,83.55
2024-01-19T21:59:02.953Z,83.52
2024-01-19T22:01:32.011Z,83.53
2024-01-19T22:04:02.039Z,83.61
2024-01-19T22:06:30.984Z,83.82
2024-01-19T22:09:00.004Z,83.69
2024-01-19T22:11:29.710Z,83.52
2024-01-19T22:14:01.022Z,83.36
2024-01-19T22:16:32.030Z,83.39
2024-01-19T22:19:00.809Z,83.52
2024-01-19T22:21:29.479Z,83.16
2024-01-19T22:23:58.061Z,83.23
2024-01-19T22:26:27.568Z,82.96
2024-01-19T22:28:57.705Z,83.17
2024-01-19T22:31:26.471Z,83.23
2024-01-19T22:33:55.252Z,83.22
2024-01-19T22:36:24.669Z,83.15
2024-01-19T22:38:54.710Z,82.72
2024-01-19T22:41:24.589Z,82.84
2024-01-19T22:43:53.806Z,83.06
2024-01-19T22:46:22.798Z,83.00
2024-01-19T22:48:51.545Z,82.92
2024-01-19T22:51:21.593Z,82.95
2024-01-19T22:53:52.280Z,82.96
2024-01-19T22:56:21.275Z,82.79
2024-01-19T22:58:51.620Z,82.80
2024-01-19T23:01:21.338Z,82.40
2024-01-19T23:03:50.728Z,82.21
2024-01-19T23:06:19.907Z,82.27
2024-01-19T23:08:48.842Z,82.33
2024-01-19T23:11:18.574Z,82.31
2024-01-19T23:13:47.464Z,82.14
2024-01-19T23:16:16.325Z,82.12
2024-01-19T23:18:45.381Z,82.32
2024-01-19T23:21:14.948Z,82.43
2024-01-19T23:23:44.840Z,82.22
2024-01-19T23:26:14.390Z,82.45
2024-01-19T23:28:44.709Z,82.33
2024-01-19T23:31:13.767Z,82.65
2024-01-19T23:33:44.261Z,82.53
2024-01-19T23:36:15.333Z,82.56
2024-01-19T23:38:44.014Z,82.74
2024-01-19T23:41:12.952Z,82.79
2024-01-19T23:43:42.424Z,82.48
2024-01-19T23:46:11.420Z,82.72
2024-01-19T23:48:40.467Z,82.69
2024-01-19T23:51:09.711Z,82.49
2024-01-19T23:53:38.493Z,82.19
2024-01-19T23:56:07.722Z,82.17
2024-01-19T23:58:36.310Z,82.24
